createdAt,value
2022-09-15T00:01:34.264Z,12.07
2022-09-15T00:04:03.209Z,8.85
2022-09-15T00:06:31.407Z,10.10
2022-09-15T00:08:59.988Z,9.57
2022-09-15T00:11:30.402Z,9.45
2022-09-15T00:14:03.711Z,11.95
2022-09-15T00:19:02.943Z,12.93
2022-09-15T00:21:34.185Z,10.75
2022-09-15T00:24:03.334Z,10.00
2022-09-15T00:26:32.916Z,11.55
2022-09-15T00:29:02.360Z,15.77
2022-09-15T00:31:32.503Z,11.63
2022-09-15T00:34:05.056Z,13.43
2022-09-15T00:36:33.535Z,13.20
2022-09-15T00:39:02.174Z,12.02
2022-09-15T00:41:31.281Z,11.40
2022-09-15T00:44:02.335Z,11.45
2022-09-15T00:46:33.327Z,12.43
2022-09-15T00:49:08.300Z,12.07
2022-09-15T00:51:41.198Z,9.75
2022-09-15T00:56:49.500Z,11.38
2022-09-15T00:59:21.456Z,8.82
2022-09-15T01:01:56.339Z,8.40
2022-09-15T01:04:26.485Z,9.20
2022-09-15T01:07:02.183Z,8.52
2022-09-15T01:09:37.374Z,7.88
2022-09-15T01:12:06.360Z,10.20
2022-09-15T01:14:34.850Z,7.78
2022-09-15T01:17:09.043Z,6.28
2022-09-15T01:20:23.691Z,6.25
2022-09-15T01:23:11.780Z,7.03
2022-09-15T01:26:06.764Z,8.18
2022-09-15T01:28:57.549Z,9.00
2022-09-15T01:31:34.689Z,6.68
2022-09-15T01:34:08.286Z,6.13
2022-09-15T01:36:42.768Z,7.32
2022-09-15T01:39:17.893Z,8.32
2022-09-15T01:41:49.652Z,5.65
2022-09-15T01:44:24.145Z,5.10
2022-09-15T01:46:57.159Z,7.57
2022-09-15T01:51:57.024Z,7.40
2022-09-15T01:54:29.640Z,7.15
2022-09-15T01:56:58.260Z,6.07
2022-09-15T01:59:26.917Z,6.85
2022-09-15T02:02:01.518Z,6.15
2022-09-15T02:04:38.237Z,6.22
2022-09-15T02:07:15.153Z,7.05
2022-09-15T02:09:49.551Z,7.22
2022-09-15T02:12:21.871Z,6.82
2022-09-15T02:14:58.133Z,6.25
2022-09-15T02:17:35.482Z,5.72
2022-09-15T02:20:16.125Z,6.65
2022-09-15T02:22:49.719Z,7.15
2022-09-15T02:25:22.616Z,8.20
2022-09-15T02:30:22.243Z,4.95
2022-09-15T02:32:57.223Z,6.70
2022-09-15T02:35:28.415Z,5.22
2022-09-15T02:37:57.629Z,5.90
2022-09-15T02:40:26.193Z,5.68
2022-09-15T02:42:56.798Z,4.22
2022-09-15T02:45:26.926Z,5.30
2022-09-15T02:47:57.066Z,5.30
2022-09-15T02:50:26.725Z,6.38
2022-09-15T02:52:55.459Z,4.07
2022-09-15T02:55:24.155Z,5.18
2022-09-15T02:57:52.604Z,5.70
2022-09-15T03:00:21.868Z,5.78
2022-09-15T03:02:52.355Z,5.07
2022-09-15T03:05:24.396Z,4.85
2022-09-15T03:07:53.725Z,4.68
2022-09-15T03:10:23.635Z,7.07
2022-09-15T03:12:53.858Z,3.97
2022-09-15T03:15:25.070Z,4.18
2022-09-15T03:17:53.761Z,4.80
2022-09-15T03:20:27.349Z,4.22
2022-09-15T03:22:56.333Z,5.72
2022-09-15T03:25:26.959Z,6.38
2022-09-15T03:27:55.678Z,5.20
2022-09-15T03:30:24.186Z,5.38
2022-09-15T03:32:52.520Z,4.20
2022-09-15T03:35:20.916Z,5.07
2022-09-15T03:37:50.580Z,5.78
2022-09-15T03:40:20.006Z,4.07
2022-09-15T03:42:48.779Z,4.55
2022-09-15T03:45:17.539Z,6.03
2022-09-15T03:47:46.030Z,4.72
2022-09-15T03:50:14.431Z,5.10
2022-09-15T03:52:43.124Z,4.90
2022-09-15T03:55:13.212Z,5.95
2022-09-15T03:57:41.668Z,5.18
2022-09-15T04:00:11.551Z,4.57
2022-09-15T04:02:40.047Z,4.43
2022-09-15T04:05:09.892Z,5.03
2022-09-15T04:07:38.477Z,6.50
2022-09-15T04:10:08.101Z,5.25
2022-09-15T04:12:38.320Z,5.00
2022-09-15T04:15:07.798Z,5.18
2022-09-15T04:17:36.387Z,4.95
2022-09-15T04:20:05.136Z,4.10
2022-09-15T04:22:34.211Z,4.88
2022-09-15T04:25:02.685Z,3.50
2022-09-15T04:27:34.348Z,5.47
2022-09-15T04:30:05.565Z,4.05
2022-09-15T04:32:35.646Z,4.85
2022-09-15T04:35:05.611Z,5.40
2022-09-15T04:37:34.287Z,4.25
2022-09-15T04:40:03.586Z,4.70
2022-09-15T04:42:32.291Z,4.85
2022-09-15T04:45:00.648Z,5.55
2022-09-15T04:47:30.402Z,5.90
2022-09-15T04:49:59.483Z,5.25
2022-09-15T04:52:27.934Z,5.80
2022-09-15T04:54:56.486Z,5.82
2022-09-15T04:57:25.052Z,6.20
2022-09-15T04:59:53.326Z,4.95
2022-09-15T05:02:22.074Z,7.57
2022-09-15T05:04:52.439Z,5.60
2022-09-15T05:07:20.974Z,5.32
2022-09-15T05:09:49.356Z,5.00
2022-09-15T05:12:18.053Z,6.32
2022-09-15T05:14:46.322Z,6.80
2022-09-15T05:17:14.500Z,6.88
2022-09-15T05:19:42.731Z,6.03
2022-09-15T05:22:12.822Z,4.38
2022-09-15T05:24:41.065Z,5.25
2022-09-15T05:27:09.695Z,6.72
2022-09-15T05:29:38.517Z,5.47
2022-09-15T05:32:06.885Z,8.73
2022-09-15T05:34:35.753Z,6.97
2022-09-15T05:37:05.267Z,8.95
2022-09-15T05:39:35.072Z,7.88
2022-09-15T05:42:03.744Z,8.40
2022-09-15T05:44:32.352Z,8.60
2022-09-15T05:47:00.932Z,7.85
2022-09-15T05:49:29.725Z,6.38
2022-09-15T05:51:58.130Z,6.75
2022-09-15T05:54:27.413Z,6.10
2022-09-15T05:56:57.144Z,7.90
2022-09-15T05:59:25.678Z,5.95
2022-09-15T06:01:54.231Z,8.10
2022-09-15T06:04:22.820Z,9.05
2022-09-15T06:06:51.303Z,8.82
2022-09-15T06:09:19.694Z,7.88
2022-09-15T06:11:48.193Z,7.70
2022-09-15T06:14:18.080Z,6.25
2022-09-15T06:16:46.957Z,6.68
2022-09-15T06:19:15.501Z,6.20
2022-09-15T06:21:43.761Z,7.20
2022-09-15T06:24:13.068Z,8.63
2022-09-15T06:26:41.596Z,5.10
2022-09-15T06:29:13.658Z,6.25
2022-09-15T06:31:44.152Z,7.63
2022-09-15T06:34:12.937Z,8.38
2022-09-15T06:36:43.513Z,8.25
2022-09-15T06:39:11.956Z,7.15
2022-09-15T06:42:01.395Z,7.68
2022-09-15T06:44:30.109Z,9.40
2022-09-15T06:46:59.927Z,7.55
2022-09-15T06:49:29.021Z,9.95
2022-09-15T06:51:57.086Z,5.10
2022-09-15T06:54:25.649Z,7.75
2022-09-15T06:56:54.040Z,8.60
2022-09-15T06:59:25.388Z,6.53
2022-09-15T07:01:54.998Z,8.23
2022-09-15T07:04:24.897Z,5.90
2022-09-15T07:06:53.206Z,5.72
2022-09-15T07:09:22.048Z,8.20
2022-09-15T07:11:50.701Z,6.75
2022-09-15T07:14:19.101Z,8.50
2022-09-15T07:16:47.417Z,9.32
2022-09-15T07:19:15.917Z,8.75
2022-09-15T07:21:45.813Z,6.13
2022-09-15T07:24:14.580Z,6.38
2022-09-15T07:26:43.430Z,5.65
2022-09-15T07:29:12.017Z,11.95
2022-09-15T07:31:40.924Z,7.75
2022-09-15T07:34:09.510Z,6.60
2022-09-15T07:36:38.014Z,7.35
2022-09-15T07:39:07.438Z,5.32
2022-09-15T07:41:36.205Z,7.80
2022-09-15T07:44:04.652Z,5.78
2022-09-15T07:46:34.324Z,5.35
2022-09-15T07:49:03.892Z,5.80
2022-09-15T07:51:32.366Z,7.30
2022-09-15T07:54:01.698Z,5.07
2022-09-15T07:56:31.507Z,5.30
2022-09-15T07:58:59.791Z,6.45
2022-09-15T08:01:28.347Z,9.10
2022-09-15T08:03:57.548Z,6.95
2022-09-15T08:06:37.552Z,5.33
2022-09-15T08:09:15.248Z,5.07
2022-09-15T08:11:45.837Z,6.20
2022-09-15T08:14:14.257Z,6.80
2022-09-15T08:16:42.467Z,4.78
2022-09-15T08:19:10.890Z,3.42
2022-09-15T08:21:39.812Z,4.60
2022-09-15T08:24:08.401Z,4.68
2022-09-15T08:26:38.487Z,4.82
2022-09-15T08:29:08.251Z,5.03
2022-09-15T08:31:36.676Z,5.60
2022-09-15T08:34:06.882Z,5.85
2022-09-15T08:36:35.511Z,5.20
2022-09-15T08:39:05.094Z,6.00
2022-09-15T08:41:36.515Z,7.57
2022-09-15T08:44:17.491Z,4.68
2022-09-15T08:46:52.190Z,3.83
2022-09-15T08:49:41.225Z,3.35
2022-09-15T08:52:20.003Z,4.93
2022-09-15T08:54:51.640Z,3.83
2022-09-15T08:57:23.690Z,4.97
2022-09-15T08:59:54.970Z,3.85
2022-09-15T09:03:09.439Z,2.65
2022-09-15T09:05:48.665Z,4.25
2022-09-15T09:08:46.637Z,2.75
2022-09-15T09:11:22.619Z,3.45
2022-09-15T09:14:01.102Z,5.03
2022-09-15T09:16:52.341Z,4.25
2022-09-15T09:19:43.274Z,3.95
2022-09-15T09:22:15.102Z,3.97
2022-09-15T09:24:46.207Z,3.95
2022-09-15T09:27:18.286Z,4.75
2022-09-15T09:29:49.679Z,2.67
2022-09-15T09:32:24.585Z,2.20
2022-09-15T09:35:01.116Z,3.80
2022-09-15T09:37:29.924Z,3.17
2022-09-15T09:39:58.328Z,4.20
2022-09-15T09:42:30.961Z,2.30
2022-09-15T09:44:59.662Z,2.10
2022-09-15T09:47:30.697Z,2.15
2022-09-15T09:50:00.892Z,4.22
2022-09-15T09:52:37.140Z,3.28
2022-09-15T09:55:23.048Z,3.10
2022-09-15T09:57:51.978Z,3.42
2022-09-15T10:00:33.638Z,3.45
2022-09-15T10:03:12.716Z,3.97
2022-09-15T10:05:41.486Z,4.78
2022-09-15T10:08:16.920Z,2.97
2022-09-15T10:10:52.242Z,2.13
2022-09-15T10:13:21.680Z,4.40
2022-09-15T10:15:55.173Z,3.72
2022-09-15T10:18:32.966Z,5.57
2022-09-15T10:21:02.731Z,3.50
2022-09-15T10:23:32.395Z,4.38
2022-09-15T10:26:23.125Z,4.50
2022-09-15T10:29:12.701Z,4.22
2022-09-15T10:31:41.859Z,3.50
2022-09-15T10:34:31.416Z,3.42
2022-09-15T10:37:15.151Z,2.95
2022-09-15T10:39:52.885Z,3.47
2022-09-15T10:42:31.574Z,3.60
2022-09-15T10:45:14.872Z,5.13
2022-09-15T10:47:57.678Z,4.43
2022-09-15T10:50:31.746Z,3.80
2022-09-15T10:53:17.987Z,2.38
2022-09-15T10:55:57.238Z,2.80
2022-09-15T10:58:39.905Z,2.50
2022-09-15T11:01:25.267Z,4.53
2022-09-15T11:04:09.237Z,3.85
2022-09-15T11:06:46.186Z,2.80
2022-09-15T11:09:18.259Z,4.95
2022-09-15T11:12:01.149Z,3.38
2022-09-15T11:17:32.162Z,4.30
2022-09-15T11:20:29.489Z,6.03
2022-09-15T11:23:05.477Z,3.95
2022-09-15T11:25:39.823Z,5.20
2022-09-15T11:28:17.730Z,5.65
2022-09-15T11:30:54.702Z,3.78
2022-09-15T11:33:30.148Z,5.68
2022-09-15T11:36:05.755Z,5.82
2022-09-15T11:38:47.908Z,5.43
2022-09-15T11:41:31.500Z,5.80
2022-09-15T11:44:16.686Z,7.57
2022-09-15T11:46:58.621Z,5.28
2022-09-15T11:49:31.140Z,6.68
2022-09-15T11:52:04.216Z,6.47
2022-09-15T11:54:42.885Z,6.47
2022-09-15T11:57:18.702Z,7.38
2022-09-15T11:59:56.480Z,9.13
2022-09-15T12:02:30.417Z,5.72
2022-09-15T12:05:08.153Z,8.00
2022-09-15T12:07:44.609Z,8.13
2022-09-15T12:10:22.404Z,7.80
2022-09-15T12:12:53.902Z,8.50
2022-09-15T12:15:27.449Z,8.63
2022-09-15T12:18:10.896Z,10.60
2022-09-15T12:20:55.170Z,10.70
2022-09-15T12:23:31.051Z,6.30
2022-09-15T12:26:14.302Z,7.80
2022-09-15T12:31:35.183Z,7.72
2022-09-15T12:34:06.393Z,6.20
2022-09-15T12:36:38.223Z,7.75
2022-09-15T12:39:22.211Z,6.17
2022-09-15T12:41:54.384Z,7.38
2022-09-15T12:44:33.806Z,7.63
2022-09-15T12:47:04.330Z,6.47
2022-09-15T12:49:36.972Z,8.93
2022-09-15T12:52:08.145Z,9.07
2022-09-15T12:54:39.955Z,8.68
2022-09-15T12:57:25.356Z,7.95
2022-09-15T13:00:27.529Z,9.02
2022-09-15T13:02:57.214Z,8.02
2022-09-15T13:06:19.516Z,10.32
2022-09-15T13:08:53.811Z,10.48
2022-09-15T13:11:28.456Z,9.05
2022-09-15T13:14:11.500Z,8.57
2022-09-15T13:16:49.076Z,13.63
2022-09-15T16:22:02.428Z,8.63
2022-09-15T16:24:31.109Z,9.60
2022-09-15T16:26:59.884Z,9.95
2022-09-15T16:29:36.053Z,8.68
2022-09-15T16:32:07.145Z,9.38
2022-09-15T16:34:35.242Z,7.72
2022-09-15T16:37:04.758Z,7.82
2022-09-15T16:39:33.010Z,9.93
2022-09-15T16:42:01.279Z,9.02
2022-09-15T16:44:29.369Z,8.80
2022-09-15T16:46:57.526Z,9.00
2022-09-15T16:49:26.131Z,8.43
2022-09-15T16:51:54.399Z,7.00
2022-09-15T16:54:23.779Z,8.32
2022-09-15T16:56:51.982Z,9.48
2022-09-15T16:59:20.036Z,7.47
2022-09-15T17:01:48.217Z,8.13
2022-09-15T17:04:19.101Z,9.57
2022-09-15T17:06:47.483Z,8.80
2022-09-15T17:09:15.495Z,11.02
2022-09-15T17:11:44.986Z,9.98
2022-09-15T17:14:15.494Z,9.07
2022-09-15T17:16:46.728Z,8.27
2022-09-15T17:19:14.902Z,9.15
2022-09-15T17:21:43.064Z,9.90
2022-09-15T17:24:11.652Z,11.57
2022-09-15T17:26:39.719Z,9.98
2022-09-15T17:29:09.165Z,9.60
2022-09-15T17:31:37.272Z,11.27
2022-09-15T17:34:05.344Z,11.55
2022-09-15T17:36:36.179Z,9.98
2022-09-15T17:39:04.496Z,8.48
2022-09-15T17:41:33.418Z,8.50
2022-09-15T17:44:01.492Z,12.40
2022-09-15T17:46:30.918Z,10.30
2022-09-15T17:48:59.057Z,12.15
2022-09-15T17:51:27.186Z,11.43
2022-09-15T17:53:55.293Z,11.52
2022-09-15T17:56:23.359Z,11.40
2022-09-15T17:58:51.479Z,10.90
2022-09-15T18:01:19.630Z,10.95
2022-09-15T18:03:50.068Z,14.00
2022-09-15T18:06:18.182Z,13.38
2022-09-15T18:08:46.632Z,13.77
2022-09-15T18:11:15.923Z,12.18
2022-09-15T18:13:44.008Z,10.50
2022-09-15T18:16:14.424Z,13.02
2022-09-15T18:18:42.944Z,12.00
2022-09-15T18:21:25.799Z,12.73
2022-09-15T18:23:54.777Z,12.15
2022-09-15T18:26:26.243Z,11.75
2022-09-15T18:28:55.701Z,10.75
2022-09-15T18:31:23.882Z,13.18
2022-09-15T18:33:52.040Z,14.30
2022-09-15T18:36:21.507Z,11.85
2022-09-15T18:38:49.513Z,13.40
2022-09-15T18:41:17.623Z,12.82
2022-09-15T18:43:48.970Z,13.45
2022-09-15T18:46:17.922Z,12.05
2022-09-15T18:48:46.145Z,14.38
2022-09-15T18:51:23.766Z,12.32
2022-09-15T18:53:54.555Z,14.82
2022-09-15T18:56:22.787Z,12.65
2022-09-15T18:58:53.687Z,18.00
2022-09-15T19:01:22.932Z,15.55
2022-09-15T19:03:51.476Z,14.75
2022-09-15T19:06:19.522Z,17.55
2022-09-15T19:08:47.867Z,13.85
2022-09-15T19:11:17.620Z,14.40
2022-09-15T19:13:45.736Z,11.02
2022-09-15T19:16:14.009Z,14.40
2022-09-15T19:18:44.859Z,11.52
2022-09-15T19:21:13.220Z,13.70
2022-09-15T19:23:41.325Z,7.53
2022-09-15T19:26:13.574Z,5.22
2022-09-15T19:28:43.501Z,6.80
2022-09-15T19:31:12.288Z,5.65
2022-09-15T19:33:41.021Z,4.70
2022-09-15T19:36:27.304Z,7.15
2022-09-15T19:38:56.868Z,5.10
2022-09-15T19:41:25.300Z,5.00
2022-09-15T19:43:55.061Z,6.03
2022-09-15T19:46:25.737Z,5.82
2022-09-15T19:48:55.589Z,4.53
2022-09-15T19:51:24.235Z,5.68
2022-09-15T19:53:55.442Z,5.05
2022-09-15T19:56:26.192Z,6.53
2022-09-15T19:58:57.267Z,7.00
2022-09-15T20:01:27.719Z,5.93
2022-09-15T20:03:57.280Z,6.22
2022-09-15T20:06:30.223Z,8.73
2022-09-15T20:09:00.647Z,5.65
2022-09-15T20:11:30.761Z,7.43
2022-09-15T20:14:01.087Z,7.63
2022-09-15T20:16:29.156Z,6.70
2022-09-15T20:18:57.231Z,4.43
2022-09-15T20:21:48.764Z,4.95
2022-09-15T20:24:15.290Z,4.78
2022-09-15T20:26:43.718Z,5.55
2022-09-15T20:29:13.712Z,6.25
2022-09-15T20:31:42.602Z,6.70
2022-09-15T20:34:10.804Z,6.50
2022-09-15T20:36:40.050Z,6.60
2022-09-15T20:39:10.571Z,8.88
2022-09-15T20:41:39.249Z,8.75
2022-09-15T20:44:09.393Z,9.32
2022-09-15T20:46:39.342Z,7.40
2022-09-15T20:49:08.975Z,6.05
2022-09-15T20:51:37.190Z,7.05
2022-09-15T20:54:06.112Z,5.38
2022-09-15T20:56:36.113Z,7.18
2022-09-15T20:59:06.012Z,7.35
2022-09-15T21:01:36.308Z,7.93
2022-09-15T21:04:06.783Z,7.22
2022-09-15T21:06:35.016Z,6.50
2022-09-15T21:09:03.769Z,7.40
2022-09-15T21:11:31.863Z,5.70
2022-09-15T21:13:59.956Z,7.20
2022-09-15T21:16:29.431Z,6.85
2022-09-15T21:18:59.229Z,8.70
2022-09-15T21:21:30.804Z,6.57
2022-09-15T21:24:01.167Z,5.95
2022-09-15T21:26:31.522Z,8.98
2022-09-15T21:28:59.592Z,8.13
2022-09-15T21:31:29.960Z,9.43
2022-09-15T21:33:59.855Z,10.82
2022-09-15T21:36:30.520Z,9.30
2022-09-15T21:39:00.553Z,7.65
2022-09-15T21:41:30.247Z,7.20
2022-09-15T21:43:59.379Z,6.10
2022-09-15T21:46:29.326Z,8.38
2022-09-15T21:48:59.019Z,5.20
2022-09-15T21:51:30.921Z,5.55
2022-09-15T21:54:00.291Z,6.47
2022-09-15T21:56:30.090Z,5.53
2022-09-15T21:58:58.840Z,5.95
2022-09-15T22:01:29.211Z,6.75
2022-09-15T22:03:59.586Z,4.95
2022-09-15T22:06:31.967Z,6.10
2022-09-15T22:09:00.548Z,7.28
2022-09-15T22:11:29.012Z,9.07
2022-09-15T22:13:57.416Z,6.20
2022-09-15T22:16:26.275Z,6.53
2022-09-15T22:18:54.578Z,6.75
2022-09-15T22:21:24.750Z,7.25
2022-09-15T22:23:55.879Z,5.60
2022-09-15T22:26:26.222Z,8.07
2022-09-15T22:28:55.198Z,6.28
2022-09-15T22:31:25.414Z,9.68
2022-09-15T22:33:54.318Z,7.78
2022-09-15T22:36:28.121Z,6.72
2022-09-15T22:39:04.028Z,6.90
2022-09-15T22:41:33.262Z,6.00
2022-09-15T22:44:01.461Z,6.63
2022-09-15T22:46:29.693Z,7.22
2022-09-15T22:48:58.120Z,8.10
2022-09-15T22:51:26.211Z,5.90
2022-09-15T22:53:57.266Z,7.88
2022-09-15T22:56:27.507Z,7.75
2022-09-15T22:58:56.631Z,7.85
2022-09-15T23:01:26.942Z,9.40
2022-09-15T23:03:56.248Z,5.43
2022-09-15T23:06:25.362Z,7.85
2022-09-15T23:08:54.918Z,6.13
2022-09-15T23:11:23.729Z,6.22
2022-09-15T23:13:53.675Z,7.13
2022-09-15T23:16:23.205Z,9.05
2022-09-15T23:18:51.714Z,10.02
2022-09-15T23:21:20.321Z,6.22
2022-09-15T23:23:49.268Z,4.82
2022-09-15T23:26:20.580Z,4.93
2022-09-15T23:28:49.266Z,7.53
2022-09-15T23:31:19.443Z,6.03
2022-09-15T23:33:47.897Z,4.82
2022-09-15T23:36:19.408Z,4.93
2022-09-15T23:38:48.889Z,4.40
2022-09-15T23:41:17.896Z,4.40
2022-09-15T23:43:46.645Z,6.25
2022-09-15T23:46:15.107Z,5.57
2022-09-15T23:48:44.556Z,4.05
2022-09-15T23:51:13.116Z,5.38
2022-09-15T23:53:41.106Z,3.90
2022-09-15T23:56:09.295Z,3.95
2022-09-15T23:58:37.459Z,5.78
